Latest Weather Observations for Point Stuart

IDD60801

Issued at 10:31 pm CST Sunday 26 March 2017 (issued every 30 minutes, with the page automatically refreshed every 10 minutes)

About weather observations | Map of weather stations | Latest weather observations for NT | Other Formats
Station Details ID: 014254 Name: POINT STUART Lat: -12.24 Lon: 131.88 Height: 1.0 m
Data from the previous 72 hours. | See also: Recent months at Point Stuart
Date/Time
CST
Temp
°C
App
Temp
°C
Dew
Point
°C
Rel
Hum
%
Delta-T
°C
Wind Press
QNH
hPa
Press
MSL
hPa
Rain since
9am
mm
Dir  Spd
km/h
Gust
km/h
Spd
kts
Gust
kts
26/10:30pm 28.2 - 28.4 - - NW 17 24 9 13 1010.7 - 0.2
26/10:00pm 28.3 - 28.5 - - NW 17 24 9 13 1010.4 - 0.2
26/09:30pm 28.5 - 28.7 - - NNW 19 26 10 14 1009.9 - 0.2
26/09:00pm 28.5 - 28.7 - - NNW 15 24 8 13 1009.3 1009.3 0.2
26/08:30pm 28.6 - 28.8 - - NNW 17 26 9 14 1008.9 - 0.2
26/08:00pm 28.7 - 28.9 - - NNW 15 24 8 13 1008.5 - 0.2
26/07:30pm 28.7 34.8 28.7 100 0.0 N 15 28 8 15 1008.1 - 0.2
26/07:00pm 28.9 34.8 28.9 100 0.0 N 17 26 9 14 1007.9 - 0.2
26/06:30pm 29.2 35.7 29.2 100 0.0 N 15 26 8 14 1007.5 - 0.2
26/06:00pm 29.8 36.4 29.8 100 0.0 N 17 26 9 14 1007.1 1007.1 0.2
26/05:30pm 30.2 36.7 29.7 97 0.4 N 17 28 9 15 1006.9 - 0.2
26/05:00pm 31.1 39.2 31.1 100 0.0 N 15 20 8 11 1006.7 - 0.2
26/04:30pm 30.6 38.2 30.6 100 0.0 N 15 24 8 13 1006.5 - 0.2
26/04:00pm 31.2 39.7 31.2 100 0.0 N 13 19 7 10 1006.1 - 0.2
26/03:30pm 31.4 40.9 31.4 100 0.0 N 9 17 5 9 1006.2 - 0.2
26/03:00pm 31.8 41.2 31.8 100 0.0 N 11 20 6 11 1006.6 1006.6 0.2
26/02:30pm 31.8 41.2 31.8 100 0.0 N 11 22 6 12 1007.1 - 0.2
26/02:00pm 32.0 - 32.2 - - NW 20 26 11 14 1007.3 - 0.2
26/01:30pm 31.7 - 31.9 - - NNW 15 22 8 12 1008.0 - 0.2
26/01:00pm 32.3 - 32.5 - - N 15 24 8 13 1008.3 - 0.2
26/12:30pm 31.5 40.3 31.5 100 0.0 NNW 13 20 7 11 1008.4 - 0.2
26/12:00pm 31.6 40.5 31.6 100 0.0 NNW 13 20 7 11 1008.8 1008.8 0.2
26/11:30am 31.3 - 31.5 - - NNW 15 24 8 13 1009.5 - 0.2
26/11:00am 31.7 - 31.9 - - NNW 15 26 8 14 1010.0 - 0.2
26/10:30am 30.8 - 31.0 - - NNW 11 22 6 12 1009.9 - 0.2
26/10:00am 31.2 - 31.5 - - NNW 11 17 6 9 1009.7 - 0.2
26/09:30am 30.5 - 30.8 - - N 11 20 6 11 1009.4 - 0.0
26/09:00am 28.7 - 29.0 - - NNW 9 17 5 9 1009.6 1009.6 1.4
26/08:30am 29.4 - 29.9 - - N 9 17 5 9 1009.3 - 1.4
26/08:00am 28.4 - 28.9 - - NNW 9 17 5 9 1009.0 - 1.4
26/07:30am 27.6 - 28.3 - - N 7 15 4 8 1008.6 - 1.4
26/07:00am 27.0 - 27.7 - - NNE 7 11 4 6 1008.3 - 1.4
26/06:30am 26.6 - 27.3 - - NNE 11 15 6 8 1008.1 - 1.4
26/06:00am 25.9 - 26.6 - - NE 6 7 3 4 1007.9 1007.9 1.4
26/05:30am 25.6 - 26.3 - - NE 7 7 4 4 1007.7 - 1.4
26/05:00am 25.5 - 26.0 - - NE 6 9 3 5 1007.6 - 1.4
26/04:30am 25.7 - 26.2 - - NNE 9 13 5 7 1007.3 - 1.4
26/04:00am 26.1 - 26.6 - - N 11 17 6 9 1007.2 - 1.4
26/03:30am 25.9 - 26.4 - - NNE 7 11 4 6 1007.3 - 1.4
26/03:00am 26.5 - 27.0 - - ENE 11 20 6 11 1007.5 1007.5 1.4
26/02:30am 27.1 - 27.6 - - CALM 0 0 0 0 1007.6 - 1.4
26/02:00am 27.4 - 27.9 - - CALM 0 6 0 3 1007.9 - 1.4
26/01:30am 27.4 - 27.9 - - SSE 7 9 4 5 1008.2 - 1.4
26/01:00am 27.3 - 27.8 - - SSE 6 7 3 4 1008.4 - 1.4
26/12:30am 27.1 - 27.4 - - S 6 9 3 5 1008.6 - 1.4
26/12:00am 26.7 - 27.0 - - NW 7 11 4 6 1009.1 1009.1 1.4
 
Date/Time
CST
Temp
°C
App
Temp
°C
Dew
Point
°C
Rel
Hum
%
Delta-T
°C
Wind Press
QNH
hPa
Press
MSL
hPa
Rain since
9am
mm
Dir  Spd
km/h
Gust
km/h
Spd
kts
Gust
kts
25/11:30pm 26.9 - 27.1 - - NNW 7 13 4 7 1009.1 - 1.4
25/11:00pm 27.3 - 27.6 - - NNW 9 13 5 7 1008.8 - 1.4
25/10:30pm 27.3 - 27.5 - - NNW 9 17 5 9 1008.9 - 1.4
25/10:00pm 27.4 - 27.6 - - N 11 19 6 10 1008.8 - 1.4
25/09:30pm 27.4 - 27.6 - - N 9 17 5 9 1008.5 - 1.4
25/09:00pm 28.5 - 28.7 - - N 13 20 7 11 1008.0 1008.0 0.0
25/08:30pm 28.4 - 28.6 - - N 11 17 6 9 1007.5 - 0.0
25/08:00pm 28.5 34.9 28.5 100 0.0 N 13 24 7 13 1007.0 - 0.0
25/07:30pm 28.3 34.9 28.3 100 0.0 N 11 20 6 11 1006.4 - 0.0
25/07:00pm 28.5 35.3 28.5 100 0.0 N 11 17 6 9 1005.9 - 0.0
25/06:30pm 28.7 35.2 28.7 100 0.0 N 13 20 7 11 1005.7 - 0.0
25/06:00pm 28.9 35.6 28.9 100 0.0 N 13 24 7 13 1005.5 1005.5 0.0
25/05:30pm 29.4 36.1 28.9 97 0.4 N 13 19 7 10 1005.5 - 0.0
25/05:00pm 30.2 37.4 29.1 94 0.8 N 11 19 6 10 1005.4 - 0.0
25/04:30pm 31.5 39.6 31.1 98 0.3 NW 15 24 8 13 1005.3 - 0.0
25/04:00pm 31.0 38.6 30.6 98 0.3 N 15 24 8 13 1005.6 - 0.0
25/03:30pm 30.6 38.3 30.2 98 0.3 NNW 13 22 7 12 1005.7 - 0.0
25/03:00pm 32.4 42.4 32.4 100 0.0 NNW 11 19 6 10 1006.1 1006.1 0.0
25/02:30pm 31.5 39.9 31.5 100 0.0 NNW 15 24 8 13 1006.4 - 0.0
25/02:00pm 30.9 38.8 30.9 100 0.0 N 15 24 8 13 1006.2 - 0.0
25/01:30pm 31.5 39.9 31.5 100 0.0 N 15 24 8 13 1006.9 - 0.0
25/01:00pm 30.9 38.4 30.9 100 0.0 N 17 30 9 16 1007.3 - 0.0
25/12:30pm 30.7 - 30.9 - - N 17 26 9 14 1007.6 - 0.0
25/12:00pm 30.6 - 30.8 - - N 15 26 8 14 1008.0 1008.0 0.0
25/11:30am 30.6 - 30.8 - - NNE 17 24 9 13 1008.3 - 0.0
25/11:00am 29.9 - 30.2 - - N 15 28 8 15 1008.5 - 0.0
25/10:30am 29.3 - 29.6 - - NNE 13 20 7 11 1008.5 - 0.0
25/10:00am 30.2 - 30.5 - - NNE 15 22 8 12 1008.4 - 0.0
25/09:30am 29.6 - 30.1 - - NNE 15 28 8 15 1008.1 - 0.0
25/09:00am 28.5 - 29.0 - - NNE 13 24 7 13 1007.8 1007.8 9.2
25/08:30am 28.2 - 28.9 - - NE 17 26 9 14 1007.4 - 9.2
25/08:00am 27.9 - 28.7 - - NE 11 20 6 11 1007.0 - 9.2
25/07:30am 26.8 - 27.5 - - NNE 9 13 5 7 1007.0 - 9.2
25/07:00am 26.3 - 27.0 - - NNE 7 11 4 6 1006.5 - 9.2
25/06:30am 26.2 - 26.9 - - NNE 11 15 6 8 1006.4 - 9.2
25/06:00am 26.3 - 27.1 - - NNE 9 13 5 7 1006.3 1006.3 9.2
25/05:30am 26.2 - 26.9 - - NNE 6 7 3 4 1006.4 - 9.2
25/05:00am 26.4 - 27.1 - - NNE 4 7 2 4 1006.5 - 9.2
25/04:30am 26.4 - 27.1 - - NE 7 15 4 8 1006.5 - 9.2
25/04:00am 26.3 - 27.0 - - NE 7 9 4 5 1006.0 - 9.0
25/03:30am 26.4 - 27.1 - - N 11 20 6 11 1006.7 - 8.0
25/03:00am 26.7 - 27.4 - - N 13 22 7 12 1006.4 1006.4 5.6
25/02:30am 26.8 - 27.5 - - E 7 11 4 6 1006.7 - 4.2
25/02:00am 26.9 - 27.4 - - SSE 7 13 4 7 1007.2 - 4.2
25/01:30am 27.0 - 27.5 - - SE 9 15 5 8 1007.6 - 4.0
25/01:00am 27.3 - 27.8 - - SSE 9 15 5 8 1007.7 - 1.8
25/12:30am 28.0 - 28.5 - - S 6 9 3 5 1008.0 - 0.2
25/12:00am 27.9 - 28.2 - - ENE 6 7 3 4 1007.9 1007.9 0.2
 
Date/Time
CST
Temp
°C
App
Temp
°C
Dew
Point
°C
Rel
Hum
%
Delta-T
°C
Wind Press
QNH
hPa
Press
MSL
hPa
Rain since
9am
mm
Dir  Spd
km/h
Gust
km/h
Spd
kts
Gust
kts
24/11:30pm 27.7 - 28.0 - - CALM 0 0 0 0 1008.4 - 0.2
24/11:00pm 27.6 - 27.9 - - CALM 0 0 0 0 1008.7 - 0.2
24/10:30pm 27.7 - 28.0 - - NNE 6 9 3 5 1008.7 - 0.2
24/10:00pm 27.7 - 28.0 - - NNE 4 9 2 5 1008.4 - 0.2
24/09:30pm 27.9 - 28.2 - - CALM 0 6 0 3 1007.8 - 0.2
24/09:00pm 27.9 - 28.1 - - N 4 7 2 4 1007.4 1007.4 0.2
24/08:30pm 28.0 - 28.2 - - N 6 9 3 5 1006.8 - 0.2
24/08:00pm 28.3 - 28.5 - - N 9 15 5 8 1006.5 - 0.2
24/07:30pm 28.4 - 28.6 - - N 11 17 6 9 1006.2 - 0.2
24/07:00pm 28.5 35.3 28.5 100 0.0 N 11 19 6 10 1006.3 - 0.2
24/06:30pm 28.9 36.3 28.9 100 0.0 N 9 15 5 8 1006.2 - 0.2
24/06:00pm 29.5 36.3 29.5 100 0.0 N 15 22 8 12 1005.2 1005.2 0.2
24/05:30pm 30.1 37.3 30.1 100 0.0 N 15 22 8 12 1005.1 - 0.2
24/05:00pm 30.2 37.5 30.2 100 0.0 N 15 24 8 13 1005.2 - 0.2
24/04:30pm 30.7 38.8 30.7 100 0.0 N 13 20 7 11 1005.2 - 0.2
24/04:00pm 31.4 39.6 31.2 99 0.2 NE 15 22 8 12 1005.2 - 0.2
24/03:30pm 31.2 39.0 30.8 98 0.3 NE 15 22 8 12 1005.6 - 0.2
24/03:00pm 31.3 39.4 31.1 99 0.2 NE 15 22 8 12 1006.0 1006.0 0.2
24/02:30pm 30.8 38.6 30.8 100 0.0 ENE 15 20 8 11 1006.1 - 0.2
24/02:00pm 31.3 39.9 31.3 100 0.0 NE 13 20 7 11 1006.7 - 0.2
24/01:30pm 30.6 38.6 30.6 100 0.0 ENE 13 20 7 11 1007.1 - 0.2
24/01:00pm 30.6 37.9 30.6 100 0.0 ENE 17 24 9 13 1007.4 - 0.2
24/12:30pm 31.4 40.1 31.4 100 0.0 NE 13 20 7 11 1007.9 - 0.2
24/12:00pm 31.2 - 31.4 - - NE 15 24 8 13 1008.4 1008.4 0.2
24/11:30am 31.1 - 31.3 - - NE 13 22 7 12 1008.9 - 0.2
24/11:00am 30.8 - 31.0 - - ENE 13 19 7 10 1009.2 - 0.2
24/10:30am 31.0 - 31.3 - - NE 15 20 8 11 1009.5 - 0.2
24/10:00am 30.6 - 31.1 - - NNE 11 15 6 8 1009.5 - 0.2
24/09:30am 29.9 - 30.8 - - E 11 17 6 9 1009.3 - 0.0
24/09:00am 28.7 - 29.5 - - SSE 11 17 6 9 1009.1 1009.1 3.0
24/08:30am 27.6 - 28.4 - - SSE 11 17 6 9 1008.5 - 3.0
24/08:00am 26.7 - 27.5 - - SE 11 15 6 8 1008.4 - 3.0
24/07:30am 26.7 - 27.5 - - SSE 4 9 2 5 1008.2 - 3.0
24/07:00am 26.3 - 27.1 - - SSE 9 11 5 6 1008.2 - 3.0
24/06:30am 26.3 - 27.1 - - CALM 0 0 0 0 1007.9 - 3.0
24/06:00am 26.3 - 27.1 - - E 7 11 4 6 1007.4 1007.4 3.0
24/05:30am 25.9 - 26.7 - - E 9 13 5 7 1007.2 - 3.0
24/05:00am 26.0 - 26.8 - - SE 7 11 4 6 1007.2 - 3.0
24/04:30am 26.2 - 27.0 - - SE 9 13 5 7 1007.5 - 3.0
24/04:00am 26.4 - 27.2 - - SE 13 17 7 9 1007.4 - 3.0
24/03:30am 26.6 - 27.4 - - SE 11 15 6 8 1007.3 - 3.0
24/03:00am 26.8 - 27.5 - - SSE 9 11 5 6 1007.3 1007.3 3.0
24/02:30am 26.7 - 27.4 - - SE 9 11 5 6 1007.5 - 3.0
24/02:00am 26.7 - 27.4 - - SSE 7 9 4 5 1007.8 - 3.0
24/01:30am 26.5 - 27.2 - - CALM 0 7 0 4 1008.3 - 3.0
24/01:00am 26.1 - 26.6 - - CALM 0 0 0 0 1008.7 - 3.0
24/12:30am 26.0 - 26.5 - - CALM 0 0 0 0 1008.9 - 2.8
24/12:00am 25.7 - 26.2 - - CALM 0 0 0 0 1009.2 1009.2 2.8
 
Date/Time
CST
Temp
°C
App
Temp
°C
Dew
Point
°C
Rel
Hum
%
Delta-T
°C
Wind Press
QNH
hPa
Press
MSL
hPa
Rain since
9am
mm
Dir  Spd
km/h
Gust
km/h
Spd
kts
Gust
kts
23/11:30pm 25.3 - 25.6 - - NNE 9 13 5 7 1009.5 - 2.2
23/11:00pm 25.0 - 25.3 - - NNE 13 19 7 10 1009.6 - 0.8

Other Formats:

Comma delimited format used in spreadsheet applications
http://www.bom.gov.au/fwo/IDD60801/IDD60801.94127.axf

JavaScript Object Notation format (JSON) in row-major order
http://www.bom.gov.au/fwo/IDD60801/IDD60801.94127.json